createdAt,value
2023-03-29T00:05:16.387Z,292
2023-03-29T00:10:16.626Z,315
2023-03-29T00:15:19.494Z,292
2023-03-29T00:20:19.545Z,315
2023-03-29T00:25:16.612Z,292
2023-03-29T00:30:16.488Z,315
2023-03-29T00:35:19.523Z,315
2023-03-29T00:40:19.505Z,315
2023-03-29T00:45:19.525Z,315
2023-03-29T00:50:19.673Z,292
2023-03-29T00:55:19.492Z,315
2023-03-29T01:00:16.324Z,315
2023-03-29T01:05:19.528Z,315
2023-03-29T01:10:19.525Z,315
2023-03-29T01:15:16.547Z,338
2023-03-29T01:20:19.573Z,315
2023-03-29T01:25:19.481Z,315
2023-03-29T01:30:19.627Z,315
2023-03-29T01:35:19.550Z,315
2023-03-29T01:40:19.478Z,315
2023-03-29T01:45:16.634Z,315
2023-03-29T01:50:19.508Z,315
2023-03-29T01:55:16.567Z,338
2023-03-29T02:00:19.587Z,338
2023-03-29T02:05:19.501Z,315
2023-03-29T02:10:19.533Z,292
2023-03-29T02:20:19.583Z,225
2023-03-29T02:25:16.593Z,225
2023-03-29T02:45:16.498Z,225
2023-03-29T03:15:19.609Z,225
2023-03-29T03:25:16.402Z,315
2023-03-29T03:30:19.617Z,315
2023-03-29T03:35:19.627Z,292
2023-03-29T03:50:16.652Z,315
2023-03-29T03:55:19.646Z,292
2023-03-29T05:15:18.933Z,315
2023-03-29T05:20:18.860Z,292
2023-03-29T05:25:18.856Z,315
2023-03-29T05:30:15.940Z,315
2023-03-29T05:35:15.765Z,315
2023-03-29T05:40:18.936Z,315
2023-03-29T06:10:15.774Z,315
2023-03-29T06:15:15.966Z,292
2023-03-29T06:20:16.017Z,315
2023-03-29T06:25:18.950Z,315
2023-03-29T06:30:18.986Z,315
2023-03-29T06:35:18.930Z,338
2023-03-29T06:40:15.959Z,315
2023-03-29T06:45:16.017Z,315
2023-03-29T06:50:15.778Z,315
2023-03-29T06:55:15.982Z,292
2023-03-29T07:00:18.913Z,315
2023-03-29T07:05:16.016Z,315
2023-03-29T07:10:15.972Z,315
2023-03-29T07:15:18.982Z,315
2023-03-29T07:20:18.991Z,338
2023-03-29T07:25:15.954Z,315
2023-03-29T07:35:16.071Z,225
2023-03-29T07:40:18.940Z,225
2023-03-29T07:45:18.973Z,225
2023-03-29T07:50:16.044Z,225
2023-03-29T07:55:18.966Z,315
2023-03-29T08:05:26.043Z,315
2023-03-29T08:10:15.974Z,315
2023-03-29T08:15:18.995Z,315
2023-03-29T08:20:16.043Z,315
2023-03-29T08:30:16.055Z,292
2023-03-29T08:40:19.064Z,225
2023-03-29T08:45:18.982Z,315
2023-03-29T09:05:18.974Z,225
2023-03-29T09:15:19.003Z,292
2023-03-29T09:40:16.045Z,225
2023-03-29T10:00:16.110Z,315
2023-03-29T10:05:19.074Z,315
2023-03-29T10:10:19.029Z,292
2023-03-29T10:40:19.067Z,270
2023-03-29T10:50:19.062Z,292
2023-03-29T10:55:19.069Z,292
2023-03-29T11:05:19.023Z,292
2023-03-29T11:25:16.116Z,315
2023-03-29T11:30:19.189Z,315
2023-03-29T11:35:19.035Z,292
2023-03-29T11:40:19.049Z,292
2023-03-29T11:45:16.188Z,315
2023-03-29T11:50:19.151Z,315
2023-03-29T11:55:16.104Z,292
2023-03-29T12:00:16.083Z,315
2023-03-29T12:05:19.133Z,315
2023-03-29T12:10:19.102Z,292
2023-03-29T12:15:19.121Z,292
2023-03-29T12:20:16.134Z,315
2023-03-29T12:25:18.426Z,292
2023-03-29T12:30:19.144Z,338
2023-03-29T12:35:16.138Z,292
2023-03-29T12:40:19.088Z,315
2023-03-29T12:45:19.174Z,315
2023-03-29T12:50:19.126Z,315
2023-03-29T12:55:19.142Z,338
2023-03-29T13:00:19.113Z,292
2023-03-29T13:05:19.155Z,292
2023-03-29T13:10:19.161Z,315
2023-03-29T13:15:16.152Z,292
2023-03-29T13:20:19.161Z,292
2023-03-29T13:25:19.192Z,292
2023-03-29T13:30:16.133Z,315
2023-03-29T13:35:16.232Z,292
2023-03-29T13:40:19.141Z,292
2023-03-29T13:45:19.127Z,292
2023-03-29T13:50:16.156Z,292
2023-03-29T13:55:19.160Z,292
2023-03-29T14:00:19.965Z,315
2023-03-29T14:05:19.110Z,225
2023-03-29T14:10:19.211Z,292
2023-03-29T14:15:19.145Z,292
2023-03-29T14:20:16.211Z,292
2023-03-29T14:25:19.231Z,225
2023-03-29T14:30:19.125Z,225
2023-03-29T14:35:16.168Z,292
2023-03-29T14:40:16.281Z,315
2023-03-29T14:45:19.185Z,338
2023-03-29T14:50:16.030Z,292
2023-03-29T14:55:16.218Z,292
2023-03-29T15:00:16.262Z,315
2023-03-29T15:05:16.309Z,292
2023-03-29T15:10:16.305Z,292
2023-03-29T15:15:19.223Z,292
2023-03-29T15:20:16.221Z,292
2023-03-29T15:25:19.179Z,315
2023-03-29T15:30:19.200Z,338
2023-03-29T15:35:19.165Z,338
2023-03-29T15:40:16.411Z,135
2023-03-29T15:45:19.281Z,338
2023-03-29T15:50:19.195Z,292
2023-03-29T15:55:19.166Z,90
2023-03-29T16:00:16.275Z,22
2023-03-29T16:05:19.290Z,22
2023-03-29T16:10:19.254Z,45
2023-03-29T16:15:19.158Z,225
2023-03-29T16:20:19.246Z,292
2023-03-29T16:25:16.234Z,225
2023-03-29T16:30:16.206Z,180
2023-03-29T16:35:16.230Z,225
2023-03-29T16:40:16.305Z,225
2023-03-29T16:45:16.233Z,315
2023-03-29T16:50:19.261Z,225
2023-03-29T16:55:16.246Z,315
2023-03-29T17:00:16.267Z,225
2023-03-29T17:05:19.241Z,225
2023-03-29T17:10:19.438Z,225
2023-03-29T17:15:19.202Z,225
2023-03-29T17:20:19.299Z,180
2023-03-29T17:25:19.307Z,225
2023-03-29T17:30:19.226Z,315
2023-03-29T17:35:16.338Z,135
2023-03-29T17:40:16.267Z,45
2023-03-29T17:45:19.257Z,45
2023-03-29T17:50:16.277Z,45
2023-03-29T17:55:19.278Z,135
2023-03-29T18:00:16.336Z,112
2023-03-29T18:05:16.224Z,112
2023-03-29T18:10:19.270Z,90
2023-03-29T18:15:19.215Z,135
2023-03-29T18:20:16.282Z,112
2023-03-29T18:25:19.272Z,90
2023-03-29T18:30:19.277Z,45
2023-03-29T18:35:19.268Z,112
2023-03-29T18:40:19.303Z,90
2023-03-29T18:45:19.383Z,112
2023-03-29T18:50:16.351Z,112
2023-03-29T18:55:16.291Z,68
2023-03-29T19:00:16.406Z,112
2023-03-29T19:05:16.339Z,90
2023-03-29T19:10:16.312Z,135
2023-03-29T19:15:16.335Z,135
2023-03-29T19:20:16.332Z,112
2023-03-29T19:25:16.356Z,90
2023-03-29T19:30:19.342Z,112
2023-03-29T19:35:16.372Z,112
2023-03-29T19:40:16.336Z,112
2023-03-29T19:45:16.341Z,90
2023-03-29T19:50:16.342Z,112
2023-03-29T19:55:16.346Z,112
2023-03-29T20:00:16.303Z,112
2023-03-29T20:05:16.185Z,90
2023-03-29T20:10:19.378Z,112
2023-03-29T20:15:19.312Z,90
2023-03-29T20:20:16.360Z,112
2023-03-29T20:25:16.401Z,112
2023-03-29T20:30:16.354Z,112
2023-03-29T20:35:16.383Z,112
2023-03-29T20:40:16.388Z,112
2023-03-29T20:45:19.796Z,112
2023-03-29T20:50:16.367Z,112
2023-03-29T20:55:19.370Z,90
2023-03-29T21:00:19.397Z,112
2023-03-29T21:05:19.317Z,112
2023-03-29T21:10:16.372Z,68
2023-03-29T21:15:16.455Z,112
2023-03-29T21:20:16.403Z,90
2023-03-29T21:25:16.361Z,112
2023-03-29T21:30:16.385Z,112
2023-03-29T21:35:16.544Z,112
2023-03-29T21:40:19.400Z,112
2023-03-29T21:45:19.385Z,90
2023-03-29T21:50:19.402Z,112
2023-03-29T21:55:19.408Z,112
2023-03-29T22:00:19.465Z,90
2023-03-29T22:05:16.434Z,90
2023-03-29T22:10:19.463Z,90
2023-03-29T22:15:19.356Z,112
2023-03-29T22:20:19.386Z,112
2023-03-29T22:25:19.421Z,90
2023-03-29T22:30:19.398Z,112
2023-03-29T22:35:16.397Z,112
2023-03-29T22:40:19.522Z,112
2023-03-29T22:45:19.409Z,135
2023-03-29T22:50:19.363Z,112
2023-03-29T22:55:19.438Z,90
2023-03-29T23:00:19.365Z,90
2023-03-29T23:05:19.453Z,90
2023-03-29T23:10:19.407Z,135
2023-03-29T23:15:19.388Z,135
2023-03-29T23:20:16.250Z,158
2023-03-29T23:25:19.457Z,158
2023-03-29T23:30:19.424Z,158
2023-03-29T23:35:16.490Z,158
2023-03-29T23:40:16.433Z,158
2023-03-29T23:45:16.588Z,158
2023-03-29T23:50:19.487Z,158
2023-03-29T23:55:19.399Z,180
